Buoy 13526

sailwx.info

Track history (hours):
 
Tides and Currents Weather Stations Pressure Air Temp Water Temp Dewpoint Dewpoint Depression Visibility Wind Speed Wind Dir Waves Ship Positions

Drifting buoy 13526

Last reported at 2015-Jul-07 07:50 UTC. Time now 2015-Jul-07 08:55 UTC.
Position N 27°58' W 048°05'.

Water temperature 26.9 ° C

Date/timePositionNaut miles runAvg speedWind from/ knotsBaromVisibWave heightAir tempDewpointWater temp
2015-Jul-07 07:50N 27°58' W 048°05'0 0.2 26.9
2015-Jul-07 06:52N 27°58' W 048°05'0 2.4 26.9
2015-Jul-07 06:48N 27°58' W 048°05'0 0.0 26.9
2015-Jul-07 06:03N 27°58' W 048°05'0 5.3 26.9
2015-Jul-07 06:00N 27°58' W 048°04'215.6 26.9
2015-Jul-07 05:54N 28°00' W 048°05'1 0.7 26.9
2015-Jul-07 04:17N 28°01' W 048°05'0 0.0 26.9
2015-Jul-07 02:04N 28°01' W 048°05'0 2.9 26.8
2015-Jul-07 01:59N 28°01' W 048°05'1 0.3 26.8
2015-Jul-06 23:38N 28°02' W 048°05'0 0.0 26.9
2015-Jul-06 23:34N 28°02' W 048°05'115.6 26.9
2015-Jul-06 23:31N 28°02' W 048°05'0 0.1 26.9
2015-Jul-06 21:46N 28°02' W 048°05'0 0.3 27.1
2015-Jul-06 21:19N 28°02' W 048°05'1 1.0 27.3
2015-Jul-06 20:08N 28°03' W 048°06'1 0.3 27.3
2015-Jul-06 15:55N 28°02' W 048°07'1 1.0 26.9
2015-Jul-06 14:46N 28°01' W 048°06'1 0.2 26.8
2015-Jul-06 10:49N 28°02' W 048°05'2 1.0 26.6
2015-Jul-06 09:09N 28°02' W 048°03'4 0.4 26.6
2015-Jul-05 23:55N 28°06' W 048°01'0 0.5 26.7
2015-Jul-05 22:59N 28°06' W 048°02'0 0.0 26.7
2015-Jul-05 21:57N 28°06' W 048°02'0 0.0 26.7
2015-Jul-05 20:04N 28°06' W 048°02'0 2.9 26.8
2015-Jul-05 19:59N 28°05' W 048°02'0 0.0 26.8
2015-Jul-05 18:40N 28°05' W 048°02'0 1.4 26.7
2015-Jul-05 18:20N 28°05' W 048°02'0 0.0 26.8
2015-Jul-05 17:49N 28°05' W 048°02'1 6.3 26.8
2015-Jul-05 17:43N 28°04' W 048°01'0 0.0 26.8
2015-Jul-05 16:08N 28°04' W 048°01'4 0.5 26.7
2015-Jul-05 07:16N 28°03' W 047°57'0 0.6 26.6
2015-Jul-05 07:08N 28°03' W 047°57'0 0.0 26.6
2015-Jul-05 06:30N 28°03' W 047°57'2 0.4 26.6
2015-Jul-05 01:00N 28°05' W 047°55'1 0.5 26.7
2015-Jul-04 22:05N 28°06' W 047°56'2 0.4 26.7
2015-Jul-04 18:00N 28°04' W 047°57'0 3.3 26.9
2015-Jul-04 17:55N 28°04' W 047°57'0 0.3 26.9
2015-Jul-04 16:20N 28°04' W 047°57'1 0.6 26.8
2015-Jul-04 13:50N 28°02' W 047°57'1 0.4 26.6
2015-Jul-04 12:07N 28°02' W 047°57'1 7.6 26.6
2015-Jul-04 12:01N 28°02' W 047°56'1 0.2 26.6
2015-Jul-04 09:09N 28°01' W 047°55'1 5.1 26.6
2015-Jul-04 09:02N 28°01' W 047°54'1 1.4 26.6
2015-Jul-04 08:36N 28°01' W 047°55'1 0.5 26.6
2015-Jul-04 06:51N 28°01' W 047°54'0 0.2 26.6
2015-Jul-04 04:55N 28°01' W 047°54'1 0.3 26.6
2015-Jul-03 23:47N 28°03' W 047°53'0 0.2 26.6
2015-Jul-03 23:01N 28°03' W 047°53'0 0.2 26.6
2015-Jul-03 21:13N 28°03' W 047°53'1 1.9 26.6
2015-Jul-03 20:53N 28°03' W 047°54'0 2.9 26.6
2015-Jul-03 20:44N 28°02' W 047°54'1 0.8 26.7
2015-Jul-03 19:40N 28°02' W 047°53'0 0.0 26.7
2015-Jul-03 19:03N 28°02' W 047°53'1 4.2 26.7
2015-Jul-03 18:55N 28°02' W 047°54'0 0.3 26.7
2015-Jul-03 18:09N 28°02' W 047°54'1 0.5 26.7
2015-Jul-03 16:31N 28°01' W 047°54'1 0.2 26.6
2015-Jul-03 14:09N 28°01' W 047°54'0 0.5 26.4
2015-Jul-03 13:23N 28°00' W 047°54'2 0.4 26.4
2015-Jul-03 09:36N 27°59' W 047°52'0 0.5 26.4
2015-Jul-03 09:22N 27°59' W 047°52'0 3.2 26.4
2015-Jul-03 09:19N 27°59' W 047°52'0 5.1 26.4
2015-Jul-03 09:14N 27°59' W 047°51'1 4.4 26.4
2015-Jul-03 09:06N 27°59' W 047°52'1 0.5 26.4
2015-Jul-03 07:54N 27°59' W 047°51'0 0.0 26.3
2015-Jul-03 07:53N 27°59' W 047°51'0 0.4 26.4
2015-Jul-03 06:50N 27°59' W 047°51'0 1.9 26.4
2015-Jul-03 06:39N 27°60' W 047°51'0 0.0
2015-Jul-03 05:07N 27°60' W 047°51'0 0.1 26.5
2015-Jul-03 01:46N 27°60' W 047°50'0 3.0 26.6
2015-Jul-03 01:42N 27°59' W 047°50'0 0.6 26.6
2015-Jul-03 01:02N 27°60' W 047°51'0 1.6 26.6
2015-Jul-03 00:54N 27°60' W 047°51'0 0.0 26.6
2015-Jul-03 00:08N 27°60' W 047°51'0 0.0 26.6
2015-Jul-03 00:05N 27°60' W 047°51'0 0.4 26.6
2015-Jul-02 23:21N 27°60' W 047°50'0 0.7 26.7
2015-Jul-02 23:16N 27°60' W 047°50'0 0.3 26.7
2015-Jul-02 22:22N 27°60' W 047°51'0 0.0 26.7
2015-Jul-02 21:53N 27°60' W 047°51'1 0.6 26.7
2015-Jul-02 20:55N 27°60' W 047°51'1 0.3 26.7
2015-Jul-02 19:09N 27°59' W 047°52'3 0.5 26.8
2015-Jul-02 12:05N 27°56' W 047°51'1 4.7 26.6
2015-Jul-02 11:55N 27°56' W 047°50'0 0.0 26.6
2015-Jul-02 10:03N 27°56' W 047°50'0 1.2 26.6
2015-Jul-02 09:53N 27°56' W 047°50'1 0.3 26.6
2015-Jul-02 07:01N 27°55' W 047°49'0 0.2 26.7
2015-Jul-02 05:17N 27°55' W 047°49'1 6.3 26.8
2015-Jul-02 05:09N 27°56' W 047°48'1 0.2
2015-Jul-02 01:22N 27°56' W 047°49'0 0.2 26.9
2015-Jul-01 22:47N 27°56' W 047°49'1 0.7 27.0
2015-Jul-01 21:06N 27°55' W 047°50'0 7.9 27.1
2015-Jul-01 21:03N 27°56' W 047°50'1 1.3 27.1
2015-Jul-01 19:57N 27°55' W 047°51'2 0.5
2015-Jul-01 16:53N 27°53' W 047°51'1 0.6 27.3
2015-Jul-01 15:09N 27°52' W 047°51'0 0.0 27.3
2015-Jul-01 14:50N 27°52' W 047°51'1 1.0 27.2
2015-Jul-01 14:04N 27°51' W 047°51'210.4 27.2
2015-Jul-01 13:55N 27°50' W 047°49'1 0.2 27.2
2015-Jul-01 10:27N 27°50' W 047°49'1 2.8 27.1
2015-Jul-01 10:08N 27°49' W 047°48'0 0.6 27.1
2015-Jul-01 09:45N 27°49' W 047°48'0 1.6 27.2
2015-Jul-01 09:42N 27°49' W 047°48'1 8.8 27.2
2015-Jul-01 09:36N 27°49' W 047°47'0 0.3 27.2
2015-Jul-01 08:50N 27°49' W 047°47'0 0.7 27.2
2015-Jul-01 08:29N 27°49' W 047°47'0 1.2 27.2
2015-Jul-01 08:07N 27°49' W 047°47'0 0.4 27.2
2015-Jul-01 07:59N 27°49' W 047°47'0 0.4 27.2
2015-Jul-01 07:09N 27°49' W 047°46'115.1 27.2
2015-Jul-01 07:04N 27°49' W 047°45'3 0.4 27.2
2015-Jul-01 00:03N 27°51' W 047°43'0 1.3 27.5
2015-Jun-30 23:55N 27°51' W 047°44'1 1.6 27.5
2015-Jun-30 23:03N 27°53' W 047°44'0 0.2 27.5
2015-Jun-30 21:14N 27°52' W 047°44'0 0.0 27.6
2015-Jun-30 20:25N 27°52' W 047°44'1 0.4 27.6
2015-Jun-30 17:55N 27°52' W 047°45'1 1.0 27.5
2015-Jun-30 17:05N 27°51' W 047°46'2 0.4 27.4
2015-Jun-30 10:38N 27°49' W 047°45'1 1.2 26.9
2015-Jun-30 09:55N 27°49' W 047°44'1 0.8 26.9
2015-Jun-30 08:13N 27°48' W 047°43'0 0.8 26.9
2015-Jun-30 08:09N 27°48' W 047°43'116.8 26.9
2015-Jun-30 08:07N 27°48' W 047°42'5 0.8 26.9
2015-Jun-30 02:01N 27°48' W 047°37'0 0.3 27.6
2015-Jun-30 01:04N 27°48' W 047°38'3 0.6 27.8
2015-Jun-29 20:53N 27°50' W 047°36'1 2.9 28.5
2015-Jun-29 20:42N 27°50' W 047°36'0 0.2 28.5
2015-Jun-29 19:07N 27°50' W 047°36'0 0.5 28.9
2015-Jun-29 18:05N 27°51' W 047°36'0 0.3 28.8
2015-Jun-29 17:16N 27°51' W 047°37'2 0.5 28.9
2015-Jun-29 13:52N 27°51' W 047°38'0 0.0 28.7
2015-Jun-29 13:03N 27°51' W 047°38'0 0.1 28.5
2015-Jun-29 12:08N 27°51' W 047°38'0 9.9 28.0
2015-Jun-29 12:05N 27°50' W 047°39'0 0.0 28.0
2015-Jun-29 10:09N 27°50' W 047°39'0 1.9 27.8
2015-Jun-29 09:59N 27°50' W 047°39'1 1.2 27.8
2015-Jun-29 09:29N 27°49' W 047°38'2 0.5 27.7
2015-Jun-29 04:08N 27°47' W 047°37'235.2 28.2
2015-Jun-29 04:05N 27°46' W 047°35'1 0.2 28.2
2015-Jun-28 23:51N 27°47' W 047°34'0 0.6 28.5
2015-Jun-28 23:02N 27°46' W 047°34'111.6 28.4
2015-Jun-28 22:55N 27°48' W 047°33'0 0.2 28.4
2015-Jun-28 19:59N 27°48' W 047°33'1 1.1 28.7
2015-Jun-28 19:04N 27°49' W 047°32'1 1.1 28.7
2015-Jun-28 18:18N 27°49' W 047°33'1 0.1 28.5
2015-Jun-28 10:01N 27°49' W 047°34'0 3.0 28.1
2015-Jun-28 09:55N 27°49' W 047°34'1 0.3 28.1
2015-Jun-28 06:54N 27°48' W 047°34'1 0.6 28.3
2015-Jun-28 06:03N 27°48' W 047°33'0 2.1 28.4
2015-Jun-28 06:00N 27°48' W 047°33'111.0 28.4
2015-Jun-28 05:54N 27°47' W 047°33'1 0.9 28.4
2015-Jun-28 04:18N 27°46' W 047°32'0 0.0 28.5
2015-Jun-28 01:50N 27°46' W 047°32'1 8.4 28.8
2015-Jun-28 01:46N 27°45' W 047°32'1 0.8 28.8
2015-Jun-28 01:04N 27°46' W 047°31'2 0.4 28.7
2015-Jun-27 21:02N 27°46' W 047°29'0 0.1 28.9
2015-Jun-27 20:09N 27°46' W 047°29'0 0.0 29.4
2015-Jun-27 20:02N 27°46' W 047°29'1 9.9 29.4
2015-Jun-27 19:58N 27°46' W 047°29'0 0.1 29.4
2015-Jun-27 15:54N 27°46' W 047°28'0 0.0 28.5
2015-Jun-27 12:47N 27°46' W 047°28'0 0.0 27.9
2015-Jun-27 12:06N 27°46' W 047°28'0 4.3 27.8
2015-Jun-27 12:01N 27°46' W 047°28'   27.8
Track history (hours):
 
Tides and Currents Weather Stations Pressure Air Temp Water Temp Dewpoint Dewpoint Depression Visibility Wind Speed Wind Dir Waves Ship Positions

Drifting buoy 13526

Last reported at 2015-Jul-07 07:50 UTC. Time now 2015-Jul-07 08:55 UTC.
Position N 27°58' W 048°05'.

Water temperature 26.9 ° C

Date/timePositionNaut miles runAvg speedWind from/ knotsBaromVisibWave heightAir tempDewpointWater temp
2015-Jul-07 07:50N 27°58' W 048°05'0 0.2 26.9
2015-Jul-07 06:52N 27°58' W 048°05'0 2.4 26.9
2015-Jul-07 06:48N 27°58' W 048°05'0 0.0 26.9
2015-Jul-07 06:03N 27°58' W 048°05'0 5.3 26.9
2015-Jul-07 06:00N 27°58' W 048°04'215.6 26.9
2015-Jul-07 05:54N 28°00' W 048°05'1 0.7 26.9
2015-Jul-07 04:17N 28°01' W 048°05'0 0.0 26.9
2015-Jul-07 02:04N 28°01' W 048°05'0 2.9 26.8
2015-Jul-07 01:59N 28°01' W 048°05'1 0.3 26.8
2015-Jul-06 23:38N 28°02' W 048°05'0 0.0 26.9
2015-Jul-06 23:34N 28°02' W 048°05'115.6 26.9
2015-Jul-06 23:31N 28°02' W 048°05'0 0.1 26.9
2015-Jul-06 21:46N 28°02' W 048°05'0 0.3 27.1
2015-Jul-06 21:19N 28°02' W 048°05'1 1.0 27.3
2015-Jul-06 20:08N 28°03' W 048°06'1 0.3 27.3
2015-Jul-06 15:55N 28°02' W 048°07'1 1.0 26.9
2015-Jul-06 14:46N 28°01' W 048°06'1 0.2 26.8
2015-Jul-06 10:49N 28°02' W 048°05'2 1.0 26.6
2015-Jul-06 09:09N 28°02' W 048°03'4 0.4 26.6
2015-Jul-05 23:55N 28°06' W 048°01'0 0.5 26.7
2015-Jul-05 22:59N 28°06' W 048°02'0 0.0 26.7
2015-Jul-05 21:57N 28°06' W 048°02'0 0.0 26.7
2015-Jul-05 20:04N 28°06' W 048°02'0 2.9 26.8
2015-Jul-05 19:59N 28°05' W 048°02'0 0.0 26.8
2015-Jul-05 18:40N 28°05' W 048°02'0 1.4 26.7
2015-Jul-05 18:20N 28°05' W 048°02'0 0.0 26.8
2015-Jul-05 17:49N 28°05' W 048°02'1 6.3 26.8
2015-Jul-05 17:43N 28°04' W 048°01'0 0.0 26.8
2015-Jul-05 16:08N 28°04' W 048°01'4 0.5 26.7
2015-Jul-05 07:16N 28°03' W 047°57'0 0.6 26.6
2015-Jul-05 07:08N 28°03' W 047°57'0 0.0 26.6
2015-Jul-05 06:30N 28°03' W 047°57'2 0.4 26.6
2015-Jul-05 01:00N 28°05' W 047°55'1 0.5 26.7
2015-Jul-04 22:05N 28°06' W 047°56'2 0.4 26.7
2015-Jul-04 18:00N 28°04' W 047°57'0 3.3 26.9
2015-Jul-04 17:55N 28°04' W 047°57'0 0.3 26.9
2015-Jul-04 16:20N 28°04' W 047°57'1 0.6 26.8
2015-Jul-04 13:50N 28°02' W 047°57'1 0.4 26.6
2015-Jul-04 12:07N 28°02' W 047°57'1 7.6 26.6
2015-Jul-04 12:01N 28°02' W 047°56'1 0.2 26.6
2015-Jul-04 09:09N 28°01' W 047°55'1 5.1 26.6
2015-Jul-04 09:02N 28°01' W 047°54'1 1.4 26.6
2015-Jul-04 08:36N 28°01' W 047°55'1 0.5 26.6
2015-Jul-04 06:51N 28°01' W 047°54'0 0.2 26.6
2015-Jul-04 04:55N 28°01' W 047°54'1 0.3 26.6
2015-Jul-03 23:47N 28°03' W 047°53'0 0.2 26.6
2015-Jul-03 23:01N 28°03' W 047°53'0 0.2 26.6
2015-Jul-03 21:13N 28°03' W 047°53'1 1.9 26.6
2015-Jul-03 20:53N 28°03' W 047°54'0 2.9 26.6
2015-Jul-03 20:44N 28°02' W 047°54'1 0.8 26.7
2015-Jul-03 19:40N 28°02' W 047°53'0 0.0 26.7
2015-Jul-03 19:03N 28°02' W 047°53'1 4.2 26.7
2015-Jul-03 18:55N 28°02' W 047°54'0 0.3 26.7
2015-Jul-03 18:09N 28°02' W 047°54'1 0.5 26.7
2015-Jul-03 16:31N 28°01' W 047°54'1 0.2 26.6
2015-Jul-03 14:09N 28°01' W 047°54'0 0.5 26.4
2015-Jul-03 13:23N 28°00' W 047°54'2 0.4 26.4
2015-Jul-03 09:36N 27°59' W 047°52'0 0.5 26.4
2015-Jul-03 09:22N 27°59' W 047°52'0 3.2 26.4
2015-Jul-03 09:19N 27°59' W 047°52'0 5.1 26.4
2015-Jul-03 09:14N 27°59' W 047°51'1 4.4 26.4
2015-Jul-03 09:06N 27°59' W 047°52'1 0.5 26.4
2015-Jul-03 07:54N 27°59' W 047°51'0 0.0 26.3
2015-Jul-03 07:53N 27°59' W 047°51'0 0.4 26.4
2015-Jul-03 06:50N 27°59' W 047°51'0 1.9 26.4
2015-Jul-03 06:39N 27°60' W 047°51'0 0.0
2015-Jul-03 05:07N 27°60' W 047°51'0 0.1 26.5
2015-Jul-03 01:46N 27°60' W 047°50'0 3.0 26.6
2015-Jul-03 01:42N 27°59' W 047°50'0 0.6 26.6
2015-Jul-03 01:02N 27°60' W 047°51'0 1.6 26.6
2015-Jul-03 00:54N 27°60' W 047°51'0 0.0 26.6
2015-Jul-03 00:08N 27°60' W 047°51'0 0.0 26.6
2015-Jul-03 00:05N 27°60' W 047°51'0 0.4 26.6
2015-Jul-02 23:21N 27°60' W 047°50'0 0.7 26.7
2015-Jul-02 23:16N 27°60' W 047°50'0 0.3 26.7
2015-Jul-02 22:22N 27°60' W 047°51'0 0.0 26.7
2015-Jul-02 21:53N 27°60' W 047°51'1 0.6 26.7
2015-Jul-02 20:55N 27°60' W 047°51'1 0.3 26.7
2015-Jul-02 19:09N 27°59' W 047°52'3 0.5 26.8
2015-Jul-02 12:05N 27°56' W 047°51'1 4.7 26.6
2015-Jul-02 11:55N 27°56' W 047°50'0 0.0 26.6
2015-Jul-02 10:03N 27°56' W 047°50'0 1.2 26.6
2015-Jul-02 09:53N 27°56' W 047°50'1 0.3 26.6
2015-Jul-02 07:01N 27°55' W 047°49'0 0.2 26.7
2015-Jul-02 05:17N 27°55' W 047°49'1 6.3 26.8
2015-Jul-02 05:09N 27°56' W 047°48'1 0.2
2015-Jul-02 01:22N 27°56' W 047°49'0 0.2 26.9
2015-Jul-01 22:47N 27°56' W 047°49'1 0.7 27.0
2015-Jul-01 21:06N 27°55' W 047°50'0 7.9 27.1
2015-Jul-01 21:03N 27°56' W 047°50'1 1.3 27.1
2015-Jul-01 19:57N 27°55' W 047°51'2 0.5
2015-Jul-01 16:53N 27°53' W 047°51'1 0.6 27.3
2015-Jul-01 15:09N 27°52' W 047°51'0 0.0 27.3
2015-Jul-01 14:50N 27°52' W 047°51'1 1.0 27.2
2015-Jul-01 14:04N 27°51' W 047°51'210.4 27.2
2015-Jul-01 13:55N 27°50' W 047°49'1 0.2 27.2
2015-Jul-01 10:27N 27°50' W 047°49'1 2.8 27.1
2015-Jul-01 10:08N 27°49' W 047°48'0 0.6 27.1
2015-Jul-01 09:45N 27°49' W 047°48'0 1.6 27.2
2015-Jul-01 09:42N 27°49' W 047°48'1 8.8 27.2
2015-Jul-01 09:36N 27°49' W 047°47'0 0.3 27.2
2015-Jul-01 08:50N 27°49' W 047°47'0 0.7 27.2
2015-Jul-01 08:29N 27°49' W 047°47'0 1.2 27.2
2015-Jul-01 08:07N 27°49' W 047°47'0 0.4 27.2
2015-Jul-01 07:59N 27°49' W 047°47'0 0.4 27.2
2015-Jul-01 07:09N 27°49' W 047°46'115.1 27.2
2015-Jul-01 07:04N 27°49' W 047°45'3 0.4 27.2
2015-Jul-01 00:03N 27°51' W 047°43'0 1.3 27.5
2015-Jun-30 23:55N 27°51' W 047°44'1 1.6 27.5
2015-Jun-30 23:03N 27°53' W 047°44'0 0.2 27.5
2015-Jun-30 21:14N 27°52' W 047°44'0 0.0 27.6
2015-Jun-30 20:25N 27°52' W 047°44'1 0.4 27.6
2015-Jun-30 17:55N 27°52' W 047°45'1 1.0 27.5
2015-Jun-30 17:05N 27°51' W 047°46'2 0.4 27.4
2015-Jun-30 10:38N 27°49' W 047°45'1 1.2 26.9
2015-Jun-30 09:55N 27°49' W 047°44'1 0.8 26.9
2015-Jun-30 08:13N 27°48' W 047°43'0 0.8 26.9
2015-Jun-30 08:09N 27°48' W 047°43'116.8 26.9
2015-Jun-30 08:07N 27°48' W 047°42'5 0.8 26.9
2015-Jun-30 02:01N 27°48' W 047°37'0 0.3 27.6
2015-Jun-30 01:04N 27°48' W 047°38'3 0.6 27.8
2015-Jun-29 20:53N 27°50' W 047°36'1 2.9 28.5
2015-Jun-29 20:42N 27°50' W 047°36'0 0.2 28.5
2015-Jun-29 19:07N 27°50' W 047°36'0 0.5 28.9
2015-Jun-29 18:05N 27°51' W 047°36'0 0.3 28.8
2015-Jun-29 17:16N 27°51' W 047°37'2 0.5 28.9
2015-Jun-29 13:52N 27°51' W 047°38'0 0.0 28.7
2015-Jun-29 13:03N 27°51' W 047°38'0 0.1 28.5
2015-Jun-29 12:08N 27°51' W 047°38'0 9.9 28.0
2015-Jun-29 12:05N 27°50' W 047°39'0 0.0 28.0
2015-Jun-29 10:09N 27°50' W 047°39'0 1.9 27.8
2015-Jun-29 09:59N 27°50' W 047°39'1 1.2 27.8
2015-Jun-29 09:29N 27°49' W 047°38'2 0.5 27.7
2015-Jun-29 04:08N 27°47' W 047°37'235.2 28.2
2015-Jun-29 04:05N 27°46' W 047°35'1 0.2 28.2
2015-Jun-28 23:51N 27°47' W 047°34'0 0.6 28.5
2015-Jun-28 23:02N 27°46' W 047°34'111.6 28.4
2015-Jun-28 22:55N 27°48' W 047°33'0 0.2 28.4
2015-Jun-28 19:59N 27°48' W 047°33'1 1.1 28.7
2015-Jun-28 19:04N 27°49' W 047°32'1 1.1 28.7
2015-Jun-28 18:18N 27°49' W 047°33'1 0.1 28.5
2015-Jun-28 10:01N 27°49' W 047°34'0 3.0 28.1
2015-Jun-28 09:55N 27°49' W 047°34'1 0.3 28.1
2015-Jun-28 06:54N 27°48' W 047°34'1 0.6 28.3
2015-Jun-28 06:03N 27°48' W 047°33'0 2.1 28.4
2015-Jun-28 06:00N 27°48' W 047°33'111.0 28.4
2015-Jun-28 05:54N 27°47' W 047°33'1 0.9 28.4
2015-Jun-28 04:18N 27°46' W 047°32'0 0.0 28.5
2015-Jun-28 01:50N 27°46' W 047°32'1 8.4 28.8
2015-Jun-28 01:46N 27°45' W 047°32'1 0.8 28.8
2015-Jun-28 01:04N 27°46' W 047°31'2 0.4 28.7
2015-Jun-27 21:02N 27°46' W 047°29'0 0.1 28.9
2015-Jun-27 20:09N 27°46' W 047°29'0 0.0 29.4
2015-Jun-27 20:02N 27°46' W 047°29'1 9.9 29.4
2015-Jun-27 19:58N 27°46' W 047°29'0 0.1 29.4
2015-Jun-27 15:54N 27°46' W 047°28'0 0.0 28.5
2015-Jun-27 12:47N 27°46' W 047°28'0 0.0 27.9
2015-Jun-27 12:06N 27°46' W 047°28'0 4.3 27.8
2015-Jun-27 12:01N 27°46' W 047°28'   27.8

Dump ship's entire track history